Time;durP1;ratioP1;P1;durP2;ratioP2;P2;SDS_P1;SDS_P2;PMS_P1;PMS_P2;Temp;Humidity;BMP_temperature;BMP_pressure;BME280_temperature;BME280_humidity;BME280_pressure;Samples;Min_cycle;Max_cycle;Signal;HPM_P1;HPM_P2
2022/12/03 00:01:12;;;;;;;;;;;;;;;;;;5059095;28;19920;-81
2022/12/03 00:03:38;;;;;;;;;;;;;;;;;;5070651;28;19908;-81
2022/12/03 00:06:04;;;;;;;;;;;;;;;;;;5074855;28;19909;-81
2022/12/03 00:08:30;;;;;;;;;;;;;;;;;;5067936;28;19908;-81
2022/12/03 00:10:55;;;;;;;;;;;;;;;;;;5052554;28;20050;-80
2022/12/03 00:13:21;;;;;;;;;;;;;;;;;;5070095;28;19916;-80
2022/12/03 00:15:47;;;;;;;;;;;;;;;;;;5068323;28;19913;-81
2022/12/03 00:18:13;;;;;;;;;;;;;;;;;;5057795;28;19966;-82
2022/12/03 00:20:39;;;;;;;;;;;;;;;;;;5071239;28;19962;-79
2022/12/03 00:23:05;;;;;;;;;;;;;;;;;;5068873;28;19916;-80
2022/12/03 00:25:31;;;;;;;;;;;;;;;;;;5071093;28;19912;-81
2022/12/03 00:27:56;;;;;;;;;;;;;;;;;;5068577;28;20003;-81
2022/12/03 00:30:22;;;;;;;;;;;;;;;;;;5065994;28;19915;-80
2022/12/03 00:32:48;;;;;;;;;;;;;;;;;;5071082;28;19909;-81
2022/12/03 00:35:14;;;;;;;;;;;;;;;;;;5061898;28;19913;-82
2022/12/03 00:37:40;;;;;;;;;;;;;;;;;;5058628;28;19909;-81
2022/12/03 00:40:06;;;;;;;;;;;;;;;;;;5064056;28;19916;-82
2022/12/03 00:42:32;;;;;;;;;;;;;;;;;;5062462;28;19912;-81
2022/12/03 00:44:57;;;;;;;;;;;;;;;;;;5070985;28;19912;-81
2022/12/03 00:47:23;;;;;;;;;;;;;;;;;;5078905;28;19912;-80
2022/12/03 00:49:49;;;;;;;;;;;;;;;;;;5063768;28;20202;-81
2022/12/03 00:52:15;;;;;;;;;;;;;;;;;;5071893;28;19908;-80
2022/12/03 00:54:42;;;;;;;;;;;;;;;;;;5067178;28;19928;-81
2022/12/03 00:57:08;;;;;;;;;;;;;;;;;;5065985;28;20012;-81
2022/12/03 00:59:33;;;;;;;;;;;;;;;;;;5064232;28;19915;-80
2022/12/03 01:01:59;;;;;;;;;;;;;;;;;;5064092;28;19967;-81
2022/12/03 01:04:28;;;;;;;;;;;;;;;;;;5067658;28;19908;-82
2022/12/03 01:06:54;;;;;;;;;;;;;;;;;;5062186;28;19912;-80
2022/12/03 01:09:20;;;;;;;;;;;;;;;;;;5074139;28;19944;-80
2022/12/03 01:11:46;;;;;;;;;;;;;;;;;;5077677;28;19942;-80
2022/12/03 01:14:12;;;;;;;;;;;;;;;;;;5063448;28;19908;-81
2022/12/03 01:16:38;;;;;;;;;;;;;;;;;;5061666;28;19999;-81
2022/12/03 01:19:04;;;;;;;;;;;;;;;;;;5068380;28;19917;-80
2022/12/03 01:21:30;;;;;;;;;;;;;;;;;;5068253;28;20590;-80
2022/12/03 01:23:55;;;;;;;;;;;;;;;;;;5070145;28;19912;-80
2022/12/03 01:26:21;;;;;;;;;;;;;;;;;;5061958;28;19936;-80
2022/12/03 01:28:47;;;;;;;;;;;;;;;;;;5064229;28;19908;-81
2022/12/03 01:33:58;;;;;;;;;;;;;;;;;;5069474;28;19915;-81
2022/12/03 01:36:23;;;;;;;;;;;;;;;;;;5062802;28;20270;-79
2022/12/03 01:38:49;;;;;;;;;;;;;;;;;;5068139;28;20328;-79
2022/12/03 01:41:15;;;;;;;;;;;;;;;;;;5066641;28;19912;-79
2022/12/03 01:43:41;;;;;;;;;;;;;;;;;;5058017;28;20303;-79
2022/12/03 01:46:07;;;;;;;;;;;;;;;;;;5055599;28;20251;-79
2022/12/03 01:48:33;;;;;;;;;;;;;;;;;;5066478;28;19916;-79
2022/12/03 01:50:59;;;;;;;;;;;;;;;;;;5066817;28;19927;-79
2022/12/03 01:53:24;;;;;;;;;;;;;;;;;;5068453;28;19909;-79
2022/12/03 01:55:52;;;;;;;;;;;;;;;;;;5067147;28;19927;-80
2022/12/03 01:58:18;;;;;;;;;;;;;;;;;;5063551;28;19908;-81
2022/12/03 02:00:44;;;;;;;;;;;;;;;;;;5062117;28;19920;-79
2022/12/03 02:03:10;;;;;;;;;;;;;;;;;;5066335;28;19939;-80
2022/12/03 02:05:36;;;;;;;;;;;;;;;;;;5065347;28;20003;-79
2022/12/03 02:08:02;;;;;;;;;;;;;;;;;;5063228;28;19942;-79
2022/12/03 02:10:27;;;;;;;;;;;;;;;;;;5061826;28;19912;-79
2022/12/03 02:12:53;;;;;;;;;;;;;;;;;;5069036;28;19904;-79
2022/12/03 02:15:19;;;;;;;;;;;;;;;;;;5065221;28;19915;-80
2022/12/03 02:17:45;;;;;;;;;;;;;;;;;;5064119;28;19938;-79
2022/12/03 02:20:11;;;;;;;;;;;;;;;;;;5063479;28;19953;-79
2022/12/03 02:22:37;;;;;;;;;;;;;;;;;;5061385;28;19916;-79
2022/12/03 02:25:02;;;;;;;;;;;;;;;;;;5064470;28;19920;-80
2022/12/03 02:27:28;;;;;;;;;;;;;;;;;;5069822;28;19962;-80
2022/12/03 02:29:54;;;;;;;;;;;;;;;;;;5065221;28;19957;-80
2022/12/03 02:32:22;;;;;;;;;;;;;;;;;;5058897;28;19913;-79
2022/12/03 02:34:48;;;;;;;;;;;;;;;;;;5059196;28;20326;-80
2022/12/03 02:37:13;;;;;;;;;;;;;;;;;;5059631;28;19908;-80
2022/12/03 02:39:39;;;;;;;;;;;;;;;;;;5064480;28;20002;-79
2022/12/03 02:44:50;;;;;;;;;;;;;;;;;;5064681;28;19922;-80
2022/12/03 02:47:16;;;;;;;;;;;;;;;;;;5061973;28;20201;-80
2022/12/03 02:49:41;;;;;;;;;;;;;;;;;;5056950;28;19912;-82
2022/12/03 02:52:07;;;;;;;;;;;;;;;;;;5070090;28;19950;-81
2022/12/03 02:54:33;;;;;;;;;;;;;;;;;;5058000;28;20189;-81
2022/12/03 02:56:59;;;;;;;;;;;;;;;;;;5059337;28;19961;-81
2022/12/03 02:59:25;;;;;;;;;;;;;;;;;;5057400;28;19915;-81
2022/12/03 03:01:51;;;;;;;;;;;;;;;;;;5061671;28;19912;-81
2022/12/03 03:04:16;;;;;;;;;;;;;;;;;;5065130;28;19951;-81
2022/12/03 03:06:42;;;;;;;;;;;;;;;;;;5055510;28;20312;-82
2022/12/03 03:09:08;;;;;;;;;;;;;;;;;;5067288;28;19912;-81
2022/12/03 03:11:34;;;;;;;;;;;;;;;;;;5059063;28;19912;-80
2022/12/03 03:14:00;;;;;;;;;;;;;;;;;;5075698;28;19913;-81
2022/12/03 03:16:26;;;;;;;;;;;;;;;;;;5061191;28;19909;-81
2022/12/03 03:18:51;;;;;;;;;;;;;;;;;;5063929;28;19908;-81
2022/12/03 03:21:17;;;;;;;;;;;;;;;;;;5066304;28;19958;-81
2022/12/03 03:23:46;;;;;;;;;;;;;;;;;;5066312;28;19912;-81
2022/12/03 03:26:12;;;;;;;;;;;;;;;;;;5063300;28;19916;-80
2022/12/03 03:28:38;;;;;;;;;;;;;;;;;;5057460;28;19913;-81
2022/12/03 03:31:04;;;;;;;;;;;;;;;;;;5065411;28;20003;-80
2022/12/03 03:33:29;;;;;;;;;;;;;;;;;;5065466;28;20347;-80
2022/12/03 03:35:55;;;;;;;;;;;;;;;;;;5066139;28;19917;-80
2022/12/03 03:38:21;;;;;;;;;;;;;;;;;;5060485;28;19915;-80
2022/12/03 03:40:47;;;;;;;;;;;;;;;;;;5061389;28;19912;-80
2022/12/03 03:43:13;;;;;;;;;;;;;;;;;;5061919;28;19956;-80
2022/12/03 03:45:39;;;;;;;;;;;;;;;;;;5065986;28;19908;-80
2022/12/03 03:48:04;;;;;;;;;;;;;;;;;;5066087;28;19966;-81
2022/12/03 03:50:30;;;;;;;;;;;;;;;;;;5065045;28;19922;-80
2022/12/03 03:52:59;;;;;;;;;;;;;;;;;;5064555;28;20381;-81
2022/12/03 03:55:25;;;;;;;;;;;;;;;;;;5067280;28;19916;-80
2022/12/03 03:57:51;;;;;;;;;;;;;;;;;;5066295;28;19908;-81
2022/12/03 04:00:17;;;;;;;;;;;;;;;;;;5063899;28;20351;-80
2022/12/03 04:02:43;;;;;;;;;;;;;;;;;;5061618;28;20306;-81
2022/12/03 04:05:08;;;;;;;;;;;;;;;;;;5061311;28;19908;-80
2022/12/03 04:07:34;;;;;;;;;;;;;;;;;;5062246;28;19915;-80
2022/12/03 04:12:54;;;;;;;;;;;;;;;;;;5060347;28;19916;-80
2022/12/03 04:12:55;;;;;;;;;;;;;;;;;;5067333;28;20263;-80
2022/12/03 04:15:21;;;;;;;;;;;;;;;;;;5061754;28;19919;-80
2022/12/03 04:18:41;;;;;;;;;;;;;;;;;;5060863;28;19908;-79
2022/12/03 04:20:36;;;;;;;;;;;;;;;;;;5057844;28;20365;-79
2022/12/03 04:23:01;;;;;;;;;;;;;;;;;;5065954;28;19958;-79
2022/12/03 04:30:57;;;;;;;;;;;;;;;;;;5067507;28;20033;-80
2022/12/03 04:36:07;;;;;;;;;;;;;;;;;;5064735;28;19999;-80
2022/12/03 04:38:33;;;;;;;;;;;;;;;;;;5068706;28;19916;-81
2022/12/03 04:41:05;;;;;;;;;;;;;;;;;;5068660;28;19912;-80
2022/12/03 04:43:31;;;;;;;;;;;;;;;;;;5068225;28;19962;-81
2022/12/03 04:45:57;;;;;;;;;;;;;;;;;;5060423;28;19912;-81
2022/12/03 04:48:23;;;;;;;;;;;;;;;;;;5061649;28;20389;-81
2022/12/03 04:50:48;;;;;;;;;;;;;;;;;;5068772;28;20334;-81
2022/12/03 04:53:14;;;;;;;;;;;;;;;;;;5067819;28;19919;-82
2022/12/03 04:55:40;;;;;;;;;;;;;;;;;;5069236;28;20367;-81
2022/12/03 04:58:06;;;;;;;;;;;;;;;;;;5067232;28;20247;-81
2022/12/03 05:00:32;;;;;;;;;;;;;;;;;;5065391;28;19912;-81
2022/12/03 05:02:58;;;;;;;;;;;;;;;;;;5069754;28;19908;-81
2022/12/03 05:05:24;;;;;;;;;;;;;;;;;;5068899;28;19909;-81
2022/12/03 05:07:49;;;;;;;;;;;;;;;;;;5067244;28;20639;-81
2022/12/03 05:10:15;;;;;;;;;;;;;;;;;;5064801;28;19912;-81
2022/12/03 05:12:41;;;;;;;;;;;;;;;;;;5066187;28;19943;-80
2022/12/03 05:15:07;;;;;;;;;;;;;;;;;;5068933;28;19909;-81
2022/12/03 05:17:33;;;;;;;;;;;;;;;;;;5067309;28;19916;-81
2022/12/03 05:22:43;;;;;;;;;;;;;;;;;;5068028;28;20324;-80
2022/12/03 05:25:09;;;;;;;;;;;;;;;;;;5068851;28;20003;-80
2022/12/03 05:27:35;;;;;;;;;;;;;;;;;;5068132;28;20385;-80
2022/12/03 05:30:01;;;;;;;;;;;;;;;;;;5066096;28;20590;-80
2022/12/03 05:32:26;;;;;;;;;;;;;;;;;;5063072;28;19908;-81
2022/12/03 05:34:52;;;;;;;;;;;;;;;;;;5054692;28;20363;-82
2022/12/03 05:37:18;;;;;;;;;;;;;;;;;;5066885;28;19994;-81
2022/12/03 05:39:44;;;;;;;;;;;;;;;;;;5061249;28;19908;-79
2022/12/03 05:44:54;;;;;;;;;;;;;;;;;;5065533;28;19915;-80
2022/12/03 05:47:20;;;;;;;;;;;;;;;;;;5065226;28;19912;-80
2022/12/03 05:49:46;;;;;;;;;;;;;;;;;;5063803;28;19924;-80
2022/12/03 05:52:12;;;;;;;;;;;;;;;;;;5063000;28;20110;-79
2022/12/03 05:54:38;;;;;;;;;;;;;;;;;;5068669;28;19912;-80
2022/12/03 05:57:03;;;;;;;;;;;;;;;;;;5063179;28;19912;-79
2022/12/03 05:59:29;;;;;;;;;;;;;;;;;;5066371;28;19975;-82
2022/12/03 06:01:55;;;;;;;;;;;;;;;;;;5062579;28;19913;-82
2022/12/03 06:04:21;;;;;;;;;;;;;;;;;;5063801;28;20381;-81
2022/12/03 06:06:47;;;;;;;;;;;;;;;;;;5063521;28;20445;-79
2022/12/03 06:09:13;;;;;;;;;;;;;;;;;;5063571;28;20416;-82
2022/12/03 06:11:39;;;;;;;;;;;;;;;;;;5060297;28;20012;-80
2022/12/03 06:14:05;;;;;;;;;;;;;;;;;;5056317;28;20283;-80
2022/12/03 06:16:31;;;;;;;;;;;;;;;;;;5060370;28;19915;-80
2022/12/03 06:18:56;;;;;;;;;;;;;;;;;;5064929;28;20131;-80
2022/12/03 06:21:22;;;;;;;;;;;;;;;;;;5066309;28;20613;-79
2022/12/03 06:23:48;;;;;;;;;;;;;;;;;;5061350;28;20445;-80
2022/12/03 06:26:14;;;;;;;;;;;;;;;;;;5061738;28;20392;-77
2022/12/03 06:28:44;;;;;;;;;;;;;;;;;;5061448;28;20416;-75
2022/12/03 06:31:10;;;;;;;;;;;;;;;;;;5066331;28;20452;-78
2022/12/03 06:33:36;;;;;;;;;;;;;;;;;;5063540;28;19909;-80
2022/12/03 06:36:01;;;;;;;;;;;;;;;;;;5059732;28;19912;-79
2022/12/03 06:38:27;;;;;;;;;;;;;;;;;;5061150;28;20414;-77
2022/12/03 06:40:53;;;;;;;;;;;;;;;;;;5061611;28;19916;-77
2022/12/03 06:43:19;;;;;;;;;;;;;;;;;;5061762;28;20480;-78
2022/12/03 06:45:45;;;;;;;;;;;;;;;;;;5058361;28;19912;-76
2022/12/03 06:48:11;;;;;;;;;;;;;;;;;;5063722;28;19912;-76
2022/12/03 06:50:36;;;;;;;;;;;;;;;;;;5061041;28;19928;-77
2022/12/03 06:53:02;;;;;;;;;;;;;;;;;;5066678;28;19908;-85
2022/12/03 06:55:28;;;;;;;;;;;;;;;;;;5058532;28;19932;-78
2022/12/03 06:57:54;;;;;;;;;;;;;;;;;;5060462;28;19912;-78
2022/12/03 07:00:20;;;;;;;;;;;;;;;;;;5060573;28;19999;-79
2022/12/03 07:02:46;;;;;;;;;;;;;;;;;;5068588;28;19931;-78
2022/12/03 07:05:11;;;;;;;;;;;;;;;;;;5061655;28;19933;-78
2022/12/03 07:07:37;;;;;;;;;;;;;;;;;;5055246;28;19915;-78
2022/12/03 07:10:03;;;;;;;;;;;;;;;;;;5063078;28;19913;-78
2022/12/03 07:12:29;;;;;;;;;;;;;;;;;;5064742;28;19917;-78
2022/12/03 07:14:55;;;;;;;;;;;;;;;;;;5064515;28;19912;-78
2022/12/03 07:17:21;;;;;;;;;;;;;;;;;;5063826;28;20018;-79
2022/12/03 07:19:46;;;;;;;;;;;;;;;;;;5060519;28;20053;-78
2022/12/03 07:22:12;;;;;;;;;;;;;;;;;;5061571;28;19916;-76
2022/12/03 07:24:38;;;;;;;;;;;;;;;;;;5066567;28;19909;-75
2022/12/03 07:27:04;;;;;;;;;;;;;;;;;;5063162;28;19908;-78
2022/12/03 07:29:30;;;;;;;;;;;;;;;;;;5060404;28;20007;-76
2022/12/03 07:31:56;;;;;;;;;;;;;;;;;;5059504;28;19908;-76
2022/12/03 07:34:22;;;;;;;;;;;;;;;;;;5067263;28;19923;-76
2022/12/03 07:36:47;;;;;;;;;;;;;;;;;;5061734;28;20018;-76
2022/12/03 07:39:13;;;;;;;;;;;;;;;;;;5060450;28;19969;-76
2022/12/03 07:41:39;;;;;;;;;;;;;;;;;;5064826;28;20344;-76
2022/12/03 07:44:05;;;;;;;;;;;;;;;;;;5062183;28;19916;-78
2022/12/03 07:46:31;;;;;;;;;;;;;;;;;;5064719;28;19915;-77
2022/12/03 07:48:57;;;;;;;;;;;;;;;;;;5064333;28;19970;-78
2022/12/03 07:51:23;;;;;;;;;;;;;;;;;;5058747;28;19924;-82
2022/12/03 07:53:49;;;;;;;;;;;;;;;;;;5067538;28;19908;-83
2022/12/03 07:56:14;;;;;;;;;;;;;;;;;;5067173;28;19939;-83
2022/12/03 07:58:40;;;;;;;;;;;;;;;;;;5064897;28;19908;-82
2022/12/03 08:01:06;;;;;;;;;;;;;;;;;;5051579;28;20381;-81
2022/12/03 08:03:32;;;;;;;;;;;;;;;;;;5067813;28;20380;-82
2022/12/03 08:05:58;;;;;;;;;;;;;;;;;;5070606;28;19909;-82
2022/12/03 08:08:24;;;;;;;;;;;;;;;;;;5065917;28;19951;-82
2022/12/03 08:10:49;;;;;;;;;;;;;;;;;;5068747;28;19908;-83
2022/12/03 08:13:15;;;;;;;;;;;;;;;;;;5066277;28;19908;-82
2022/12/03 08:15:41;;;;;;;;;;;;;;;;;;5065091;28;20282;-82
2022/12/03 08:18:07;;;;;;;;;;;;;;;;;;5062296;28;19999;-82
2022/12/03 08:20:33;;;;;;;;;;;;;;;;;;5059068;28;20332;-81
2022/12/03 08:22:59;;;;;;;;;;;;;;;;;;5058144;28;19910;-81
2022/12/03 08:25:25;;;;;;;;;;;;;;;;;;5063595;28;19909;-82
2022/12/03 08:27:51;;;;;;;;;;;;;;;;;;5066251;28;20009;-84
2022/12/03 08:30:16;;;;;;;;;;;;;;;;;;5066129;28;19924;-84
2022/12/03 08:32:42;;;;;;;;;;;;;;;;;;5069724;28;20136;-82
2022/12/03 08:35:08;;;;;;;;;;;;;;;;;;5069976;28;19915;-82
2022/12/03 08:37:34;;;;;;;;;;;;;;;;;;5069358;28;19904;-82
2022/12/03 08:40:00;;;;;;;;;;;;;;;;;;5062386;28;19919;-82
2022/12/03 08:42:41;;;;;;;;;;;;;;;;;;5066690;28;19913;-82
2022/12/03 08:45:07;;;;;;;;;;;;;;;;;;5060524;28;19916;-82
2022/12/03 08:47:33;;;;;;;;;;;;;;;;;;5068036;28;19912;-82
2022/12/03 08:49:59;;;;;;;;;;;;;;;;;;5067484;28;19916;-82
2022/12/03 08:52:25;;;;;;;;;;;;;;;;;;5070110;28;19916;-82
2022/12/03 08:54:51;;;;;;;;;;;;;;;;;;5067047;28;19912;-82
2022/12/03 08:57:16;;;;;;;;;;;;;;;;;;5059335;28;19951;-82
2022/12/03 08:59:42;;;;;;;;;;;;;;;;;;5069727;28;19947;-82
2022/12/03 09:02:08;;;;;;;;;;;;;;;;;;5065252;28;19985;-82
2022/12/03 09:04:34;;;;;;;;;;;;;;;;;;5068863;28;20014;-82
2022/12/03 09:07:00;;;;;;;;;;;;;;;;;;5062957;28;19912;-82
2022/12/03 09:09:26;;;;;;;;;;;;;;;;;;5066670;28;19908;-82
2022/12/03 09:11:52;;;;;;;;;;;;;;;;;;5059632;28;20012;-83
2022/12/03 09:14:21;;;;;;;;;;;;;;;;;;5067145;28;19915;-82
2022/12/03 09:16:47;;;;;;;;;;;;;;;;;;5065127;28;19908;-82
2022/12/03 09:19:12;;;;;;;;;;;;;;;;;;5066245;28;19927;-82
2022/12/03 09:21:38;;;;;;;;;;;;;;;;;;5070491;28;19915;-82
2022/12/03 09:24:04;;;;;;;;;;;;;;;;;;5069311;28;19908;-82
2022/12/03 09:26:30;;;;;;;;;;;;;;;;;;5067367;28;19908;-83
2022/12/03 09:28:56;;;;;;;;;;;;;;;;;;5065141;28;19943;-83
2022/12/03 09:31:22;;;;;;;;;;;;;;;;;;5064629;28;20291;-83
2022/12/03 09:33:48;;;;;;;;;;;;;;;;;;5067603;28;19908;-83
2022/12/03 09:36:13;;;;;;;;;;;;;;;;;;5058660;28;19916;-82
2022/12/03 09:38:39;;;;;;;;;;;;;;;;;;5060054;28;20584;-82
2022/12/03 09:41:05;;;;;;;;;;;;;;;;;;5065262;28;19917;-83
2022/12/03 09:43:31;;;;;;;;;;;;;;;;;;5059145;28;19954;-82
2022/12/03 09:45:57;;;;;;;;;;;;;;;;;;5068497;28;19962;-83
2022/12/03 09:48:23;;;;;;;;;;;;;;;;;;5063520;28;19969;-82
2022/12/03 09:50:49;;;;;;;;;;;;;;;;;;5064075;28;19924;-83
2022/12/03 09:53:14;;;;;;;;;;;;;;;;;;5055892;28;19959;-83
2022/12/03 09:55:40;;;;;;;;;;;;;;;;;;5066675;28;19943;-82
2022/12/03 09:58:06;;;;;;;;;;;;;;;;;;5054535;28;19909;-82
2022/12/03 10:00:32;;;;;;;;;;;;;;;;;;5060831;28;19940;-82
2022/12/03 10:02:58;;;;;;;;;;;;;;;;;;5069426;28;20367;-82
2022/12/03 10:05:24;;;;;;;;;;;;;;;;;;5069224;28;19904;-83
2022/12/03 10:07:50;;;;;;;;;;;;;;;;;;5064284;28;20548;-82
2022/12/03 10:10:15;;;;;;;;;;;;;;;;;;5066706;28;19920;-83
2022/12/03 10:12:41;;;;;;;;;;;;;;;;;;5073674;28;19936;-83
2022/12/03 10:15:07;;;;;;;;;;;;;;;;;;5064461;28;19916;-83
2022/12/03 10:17:33;;;;;;;;;;;;;;;;;;5054830;28;20447;-83
2022/12/03 10:19:59;;;;;;;;;;;;;;;;;;5064609;28;20317;-83
2022/12/03 10:22:27;;;;;;;;;;;;;;;;;;5063724;28;19947;-84
2022/12/03 10:24:53;;;;;;;;;;;;;;;;;;5055964;28;19939;-83
2022/12/03 10:27:19;;;;;;;;;;;;;;;;;;5068950;28;20397;-84
2022/12/03 10:29:45;;;;;;;;;;;;;;;;;;5068641;28;19908;-83
2022/12/03 10:32:11;;;;;;;;;;;;;;;;;;5062050;28;19995;-83
2022/12/03 10:34:37;;;;;;;;;;;;;;;;;;5064173;28;19952;-90
2022/12/03 10:37:03;;;;;;;;;;;;;;;;;;5056829;28;19951;-83
2022/12/03 10:39:34;;;;;;;;;;;;;;;;;;5064384;28;19916;-83
2022/12/03 10:42:00;;;;;;;;;;;;;;;;;;5057001;28;20318;-83
2022/12/03 10:44:29;;;;;;;;;;;;;;;;;;5056091;28;19932;-83
2022/12/03 10:46:55;;;;;;;;;;;;;;;;;;5061250;28;20320;-83
2022/12/03 10:49:21;;;;;;;;;;;;;;;;;;5068377;28;19912;-83
2022/12/03 10:51:46;;;;;;;;;;;;;;;;;;5071908;28;20397;-84
2022/12/03 10:54:12;;;;;;;;;;;;;;;;;;5067289;28;20588;-83
2022/12/03 10:56:38;;;;;;;;;;;;;;;;;;5059076;28;20322;-83
2022/12/03 10:59:04;;;;;;;;;;;;;;;;;;5061788;28;19908;-83
2022/12/03 11:01:30;;;;;;;;;;;;;;;;;;5057975;28;19920;-83
2022/12/03 11:03:56;;;;;;;;;;;;;;;;;;5060329;28;19909;-84
2022/12/03 11:06:21;;;;;;;;;;;;;;;;;;5060446;28;19917;-84
2022/12/03 11:08:47;;;;;;;;;;;;;;;;;;5055054;28;19904;-84
2022/12/03 11:11:13;;;;;;;;;;;;;;;;;;5054351;28;20021;-84
2022/12/03 11:13:39;;;;;;;;;;;;;;;;;;5053635;28;19916;-83
2022/12/03 11:16:06;;;;;;;;;;;;;;;;;;5063106;28;20061;-84
2022/12/03 11:18:32;;;;;;;;;;;;;;;;;;5057343;28;19916;-84
2022/12/03 11:20:58;;;;;;;;;;;;;;;;;;5066785;28;19916;-84
2022/12/03 11:23:24;;;;;;;;;;;;;;;;;;5061047;28;19912;-83
2022/12/03 11:25:50;;;;;;;;;;;;;;;;;;5066993;28;19913;-83
2022/12/03 11:28:16;;;;;;;;;;;;;;;;;;5069058;28;19908;-83
2022/12/03 11:30:42;;;;;;;;;;;;;;;;;;5070685;28;20309;-84
2022/12/03 11:33:07;;;;;;;;;;;;;;;;;;5054571;28;20267;-83
2022/12/03 11:35:33;;;;;;;;;;;;;;;;;;5068182;28;19947;-84
2022/12/03 11:37:59;;;;;;;;;;;;;;;;;;5060606;28;20337;-84
2022/12/03 11:40:25;;;;;;;;;;;;;;;;;;5068795;28;20282;-83
2022/12/03 11:42:51;;;;;;;;;;;;;;;;;;5072060;28;19908;-83
2022/12/03 11:45:19;;;;;;;;;;;;;;;;;;5068205;28;19924;-83
2022/12/03 11:47:45;;;;;;;;;;;;;;;;;;5067900;28;20003;-83
2022/12/03 11:50:11;;;;;;;;;;;;;;;;;;5065020;28;20004;-83
2022/12/03 11:52:37;;;;;;;;;;;;;;;;;;5064744;28;19954;-83
2022/12/03 11:55:03;;;;;;;;;;;;;;;;;;5068766;28;20614;-83
2022/12/03 11:57:29;;;;;;;;;;;;;;;;;;5061901;28;19917;-83
2022/12/03 11:59:54;;;;;;;;;;;;;;;;;;5062945;28;19909;-82
2022/12/03 12:02:20;;;;;;;;;;;;;;;;;;5057539;28;20389;-82
2022/12/03 12:04:46;;;;;;;;;;;;;;;;;;5069455;28;20322;-83
2022/12/03 12:07:12;;;;;;;;;;;;;;;;;;5062708;28;19942;-83
2022/12/03 12:09:41;;;;;;;;;;;;;;;;;;5071483;28;19944;-82
2022/12/03 12:12:07;;;;;;;;;;;;;;;;;;5071282;28;19905;-82
2022/12/03 12:14:32;;;;;;;;;;;;;;;;;;5066392;28;19908;-82
2022/12/03 12:17:02;;;;;;;;;;;;;;;;;;5063624;28;19999;-82
2022/12/03 12:19:27;;;;;;;;;;;;;;;;;;5069142;28;20444;-83
2022/12/03 12:21:53;;;;;;;;;;;;;;;;;;5062120;28;19920;-81
2022/12/03 12:24:19;;;;;;;;;;;;;;;;;;5066938;28;20126;-83
2022/12/03 12:26:45;;;;;;;;;;;;;;;;;;5060027;28;20364;-82
2022/12/03 12:29:11;;;;;;;;;;;;;;;;;;5060815;28;20325;-82
2022/12/03 12:31:37;;;;;;;;;;;;;;;;;;5067273;28;20324;-83
2022/12/03 12:34:05;;;;;;;;;;;;;;;;;;5067035;28;19927;-83
2022/12/03 12:36:31;;;;;;;;;;;;;;;;;;5070530;28;20376;-82
2022/12/03 12:38:57;;;;;;;;;;;;;;;;;;5070544;28;19996;-82
2022/12/03 12:41:23;;;;;;;;;;;;;;;;;;5069946;28;20290;-82
2022/12/03 12:43:49;;;;;;;;;;;;;;;;;;5065926;28;20283;-82
2022/12/03 12:46:15;;;;;;;;;;;;;;;;;;5059110;28;20330;-82
2022/12/03 12:48:41;;;;;;;;;;;;;;;;;;5067918;28;20050;-83
2022/12/03 12:51:07;;;;;;;;;;;;;;;;;;5081210;28;19917;-83
2022/12/03 12:53:32;;;;;;;;;;;;;;;;;;5077569;28;19911;-83
2022/12/03 12:55:58;;;;;;;;;;;;;;;;;;5060272;28;20393;-82
2022/12/03 12:58:24;;;;;;;;;;;;;;;;;;5061583;28;19913;-83
2022/12/03 13:00:50;;;;;;;;;;;;;;;;;;5065718;28;20286;-83
2022/12/03 13:03:16;;;;;;;;;;;;;;;;;;5067038;28;19954;-83
2022/12/03 13:05:44;;;;;;;;;;;;;;;;;;5066227;28;20661;-83
2022/12/03 13:08:10;;;;;;;;;;;;;;;;;;5066059;28;19908;-82
2022/12/03 13:10:36;;;;;;;;;;;;;;;;;;5068370;28;19962;-82
2022/12/03 13:13:02;;;;;;;;;;;;;;;;;;5055637;28;19909;-82
2022/12/03 13:15:28;;;;;;;;;;;;;;;;;;5058934;28;19926;-83
2022/12/03 13:17:54;;;;;;;;;;;;;;;;;;5071620;28;19908;-82
2022/12/03 13:20:19;;;;;;;;;;;;;;;;;;5069548;28;19913;-82
2022/12/03 13:22:48;;;;;;;;;;;;;;;;;;5067964;28;19908;-82
2022/12/03 13:25:14;;;;;;;;;;;;;;;;;;5065772;28;19964;-82
2022/12/03 13:27:40;;;;;;;;;;;;;;;;;;5062313;28;20350;-81
2022/12/03 13:30:06;;;;;;;;;;;;;;;;;;5074388;28;19904;-82
2022/12/03 13:32:31;;;;;;;;;;;;;;;;;;5061653;28;19919;-81
2022/12/03 13:34:57;;;;;;;;;;;;;;;;;;5063401;28;19912;-82
2022/12/03 13:37:23;;;;;;;;;;;;;;;;;;5064702;28;19965;-82
2022/12/03 13:39:49;;;;;;;;;;;;;;;;;;5067633;28;20007;-82
2022/12/03 13:45:00;;;;;;;;;;;;;;;;;;5058146;28;19919;-81
2022/12/03 13:47:25;;;;;;;;;;;;;;;;;;5069214;28;19908;-82
2022/12/03 13:49:51;;;;;;;;;;;;;;;;;;5069037;28;19916;-81
2022/12/03 13:52:17;;;;;;;;;;;;;;;;;;5067608;28;19914;-81
2022/12/03 13:54:43;;;;;;;;;;;;;;;;;;5067943;28;19957;-81
2022/12/03 13:57:09;;;;;;;;;;;;;;;;;;5069010;28;20278;-82
2022/12/03 13:59:35;;;;;;;;;;;;;;;;;;5069660;28;19914;-82
2022/12/03 14:02:01;;;;;;;;;;;;;;;;;;5068171;28;19943;-82
2022/12/03 14:04:26;;;;;;;;;;;;;;;;;;5064369;28;20477;-82
2022/12/03 14:06:52;;;;;;;;;;;;;;;;;;5052750;28;20419;-82
2022/12/03 14:09:18;;;;;;;;;;;;;;;;;;5068137;28;19908;-81
2022/12/03 14:14:28;;;;;;;;;;;;;;;;;;5069155;28;19995;-81
2022/12/03 14:16:54;;;;;;;;;;;;;;;;;;5069089;28;19995;-81
2022/12/03 14:19:20;;;;;;;;;;;;;;;;;;5067807;28;19958;-81
2022/12/03 14:21:46;;;;;;;;;;;;;;;;;;5069020;28;19914;-81
2022/12/03 14:24:12;;;;;;;;;;;;;;;;;;5061460;28;19995;-80
2022/12/03 14:26:38;;;;;;;;;;;;;;;;;;5057924;28;19908;-83
2022/12/03 14:29:03;;;;;;;;;;;;;;;;;;5066651;28;19937;-82
2022/12/03 14:31:29;;;;;;;;;;;;;;;;;;5067902;28;20012;-82
2022/12/03 14:33:55;;;;;;;;;;;;;;;;;;5067145;28;19912;-82
2022/12/03 14:36:21;;;;;;;;;;;;;;;;;;5063905;28;20456;-80
2022/12/03 14:38:47;;;;;;;;;;;;;;;;;;5059228;28;19931;-76
2022/12/03 14:43:57;;;;;;;;;;;;;;;;;;5063105;28;20003;-74
2022/12/03 14:46:23;;;;;;;;;;;;;;;;;;5059315;28;20664;-76
2022/12/03 14:48:49;;;;;;;;;;;;;;;;;;5057103;28;19908;-75
2022/12/03 14:51:15;;;;;;;;;;;;;;;;;;5066662;28;19916;-74
2022/12/03 14:53:41;;;;;;;;;;;;;;;;;;5067677;28;19915;-74
2022/12/03 14:56:06;;;;;;;;;;;;;;;;;;5059339;28;19912;-75
2022/12/03 14:58:33;;;;;;;;;;;;;;;;;;5056962;28;19994;-75
2022/12/03 15:00:58;;;;;;;;;;;;;;;;;;5067959;28;19999;-80
2022/12/03 15:03:24;;;;;;;;;;;;;;;;;;5066230;28;20041;-74
2022/12/03 15:05:50;;;;;;;;;;;;;;;;;;5067577;28;19909;-75
2022/12/03 15:08:16;;;;;;;;;;;;;;;;;;5059751;28;19915;-74
2022/12/03 15:10:42;;;;;;;;;;;;;;;;;;5068146;28;19915;-75
2022/12/03 15:13:08;;;;;;;;;;;;;;;;;;5064143;28;19947;-76
2022/12/03 15:15:34;;;;;;;;;;;;;;;;;;5060401;28;19917;-76
2022/12/03 15:17:59;;;;;;;;;;;;;;;;;;5061682;28;20082;-77
2022/12/03 15:20:25;;;;;;;;;;;;;;;;;;5060592;28;19915;-76
2022/12/03 15:22:51;;;;;;;;;;;;;;;;;;5059441;28;19912;-76
2022/12/03 15:25:23;;;;;;;;;;;;;;;;;;5064283;28;19916;-76
2022/12/03 15:27:48;;;;;;;;;;;;;;;;;;5064811;28;19908;-75
2022/12/03 15:30:14;;;;;;;;;;;;;;;;;;5065006;28;20266;-77
2022/12/03 15:32:40;;;;;;;;;;;;;;;;;;5067471;28;20402;-75
2022/12/03 15:35:06;;;;;;;;;;;;;;;;;;5067416;28;20283;-76
2022/12/03 15:37:32;;;;;;;;;;;;;;;;;;5057351;28;19984;-76
2022/12/03 15:39:58;;;;;;;;;;;;;;;;;;5065010;28;19940;-75
2022/12/03 15:42:23;;;;;;;;;;;;;;;;;;5063440;28;19916;-76
2022/12/03 15:44:49;;;;;;;;;;;;;;;;;;5064220;28;19912;-76
2022/12/03 15:47:15;;;;;;;;;;;;;;;;;;5063606;28;19908;-78
2022/12/03 15:49:41;;;;;;;;;;;;;;;;;;5064641;28;19955;-77
2022/12/03 15:52:07;;;;;;;;;;;;;;;;;;5057992;28;20414;-77
2022/12/03 15:54:33;;;;;;;;;;;;;;;;;;5065872;28;19942;-76
2022/12/03 15:56:58;;;;;;;;;;;;;;;;;;5057880;28;19965;-76
2022/12/03 15:59:24;;;;;;;;;;;;;;;;;;5061106;28;19912;-75
2022/12/03 16:01:50;;;;;;;;;;;;;;;;;;5063172;28;19912;-76
2022/12/03 16:04:16;;;;;;;;;;;;;;;;;;5061485;28;19916;-76
2022/12/03 16:06:42;;;;;;;;;;;;;;;;;;5058603;28;19922;-76
2022/12/03 16:09:08;;;;;;;;;;;;;;;;;;5057155;28;19913;-77
2022/12/03 16:11:33;;;;;;;;;;;;;;;;;;5065066;28;19905;-76
2022/12/03 16:13:59;;;;;;;;;;;;;;;;;;5059076;28;20184;-76
2022/12/03 16:16:25;;;;;;;;;;;;;;;;;;5058575;28;19912;-76
2022/12/03 16:18:51;;;;;;;;;;;;;;;;;;5055554;28;19907;-76
2022/12/03 16:21:17;;;;;;;;;;;;;;;;;;5060515;28;19916;-84
2022/12/03 16:23:43;;;;;;;;;;;;;;;;;;5062756;28;20432;-77
2022/12/03 16:26:09;;;;;;;;;;;;;;;;;;5066960;28;19915;-77
2022/12/03 16:28:35;;;;;;;;;;;;;;;;;;5065774;28;20515;-77
2022/12/03 16:31:00;;;;;;;;;;;;;;;;;;5069447;28;19909;-77
2022/12/03 16:33:26;;;;;;;;;;;;;;;;;;5063282;28;19905;-75
2022/12/03 16:35:52;;;;;;;;;;;;;;;;;;5055137;28;19908;-76
2022/12/03 16:38:18;;;;;;;;;;;;;;;;;;5067432;28;20278;-76
2022/12/03 16:40:44;;;;;;;;;;;;;;;;;;5062583;28;19913;-76
2022/12/03 16:43:10;;;;;;;;;;;;;;;;;;5063875;28;19916;-77
2022/12/03 16:48:10;;;;;;;;;;;;;;;;;;5063599;28;19913;-76
2022/12/03 16:50:36;;;;;;;;;;;;;;;;;;5068698;28;19947;-76
2022/12/03 16:53:02;;;;;;;;;;;;;;;;;;5066832;28;20440;-76
2022/12/03 16:55:28;;;;;;;;;;;;;;;;;;5067651;28;19913;-77
2022/12/03 16:57:54;;;;;;;;;;;;;;;;;;5065869;28;19960;-76
2022/12/03 17:00:20;;;;;;;;;;;;;;;;;;5064917;28;20363;-76
2022/12/03 17:02:46;;;;;;;;;;;;;;;;;;5058680;28;19966;-76
2022/12/03 17:05:12;;;;;;;;;;;;;;;;;;5065880;28;20317;-76
2022/12/03 17:07:38;;;;;;;;;;;;;;;;;;5067388;28;21856;-77